»·PEaware :: N782FL KFUL-L70

N782FL :: KFUL-L70

FLIGHT INFORMATION

Flight Status: Arrived
Operator: Privately registered:
United States
More flights under this callsign
Pilot: Luis B. (14232)
Aircraft: BEECH AIRCRAFT BARON
(BE58)
More flights by this aircraft type
Origin: KFUL Fullerton Mun
United States
Destination: L70 Agua Dulce
United States
More flights between these airports :: More routes between these airports
Route: +SLI V8 POXKU V363 POM KIMMO
File this flight plan on PilotEdge
Remarks:
Altitude:
(Current/Filed)
8,000ft
Speed:
(Current/Filed)
170kts
Departed: 04-Nov-17 02:39 PM
Arrived: 04-Nov-17 03:19 PM
Distance/Time
Traveled:
41nm/0:40
Distance/Time
To Go:
Arrived

Flight Plot

Page will automatically refresh every two minutes.

Flight plan parsing failed; only flown route is shown


Map Options




Map Legend


Flown Route
Filed Route
Departure Airport
Arrival Airport
Navaid (VOR, NDB)
Fix

Horizontal Profiles

Position Reports

Time Latitude Longitude Heading Altitude Ground
Speed
04-Nov-17 14:24 33.872945 -117.982084 179 93ft 0kts
04-Nov-17 14:25 33.872945 -117.982084 179 93ft 0kts
04-Nov-17 14:26 33.872945 -117.982084 179 93ft 0kts
04-Nov-17 14:27 33.872945 -117.982084 179 93ft 0kts
04-Nov-17 14:28 33.872945 -117.982084 179 93ft 0kts
04-Nov-17 14:29 33.872945 -117.982084 179 93ft 0kts
04-Nov-17 14:30 33.872945 -117.982084 179 93ft 0kts
04-Nov-17 14:31 33.872945 -117.982084 179 93ft 0kts
04-Nov-17 14:32 33.872945 -117.982084 179 93ft 0kts
04-Nov-17 14:33 33.872945 -117.982084 179 93ft 0kts
04-Nov-17 14:34 33.872945 -117.982084 179 93ft 0kts
04-Nov-17 14:35 33.872945 -117.982084 179 93ft 0kts
04-Nov-17 14:36 33.872945 -117.982084 179 93ft 0kts
04-Nov-17 14:37 33.872945 -117.982084 179 93ft 0kts
04-Nov-17 14:38 33.872945 -117.982084 179 93ft 0kts
04-Nov-17 14:39 33.872457 -117.982080 179 93ft 0kts
04-Nov-17 14:40 33.872975 -117.977105 76 93ft 28kts
04-Nov-17 14:41 33.873197 -117.975996 79 93ft 0kts
04-Nov-17 14:42 33.873197 -117.975996 80 93ft 0kts
04-Nov-17 14:43 33.873035 -117.975104 167 93ft 11kts
04-Nov-17 14:44 33.865597 -118.001327 237 685ft 132kts
04-Nov-17 14:45 33.847662 -118.039758 241 2370ft 123kts
04-Nov-17 14:46 33.831543 -118.075239 240 3899ft 121kts
04-Nov-17 14:47 33.815172 -118.111092 241 5172ft 133kts
04-Nov-17 14:48 33.795391 -118.153636 240 6030ft 154kts
04-Nov-17 14:49 33.773700 -118.198999 241 6850ft 158kts
04-Nov-17 14:50 33.749963 -118.247362 241 7026ft 178kts
04-Nov-17 14:51 33.723874 -118.299404 240 7022ft 179kts
04-Nov-17 14:52 33.694999 -118.275097 62 7026ft 199kts
04-Nov-17 14:53 33.725664 -118.221087 52 7022ft 193kts
04-Nov-17 14:54 33.756897 -118.168700 52 7021ft 193kts
04-Nov-17 14:55 33.780029 -118.112279 87 7021ft 192kts
04-Nov-17 14:56 33.783773 -118.048046 85 7016ft 192kts
04-Nov-17 14:57 33.799539 -117.986533 75 7016ft 193kts
04-Nov-17 14:58 33.814140 -117.924747 74 7016ft 192kts
04-Nov-17 14:59 33.828763 -117.862968 75 7015ft 192kts
04-Nov-17 15:00 33.843342 -117.801215 74 7015ft 192kts
04-Nov-17 15:01 33.883862 -117.779427 354 7011ft 180kts
04-Nov-17 15:02 33.933993 -117.781243 352 7017ft 180kts
04-Nov-17 15:03 33.983750 -117.783266 352 7022ft 179kts
04-Nov-17 15:04 34.033400 -117.785324 352 7026ft 179kts
04-Nov-17 15:05 34.082675 -117.788822 328 7060ft 168kts
04-Nov-17 15:06 34.105227 -117.830749 301 7716ft 154kts
04-Nov-17 15:07 34.130677 -117.873742 301 7979ft 162kts
04-Nov-17 15:08 34.157296 -117.918215 301 7986ft 164kts
04-Nov-17 15:09 34.184259 -117.963213 301 7994ft 165kts
04-Nov-17 15:10 34.211181 -118.008217 300 8005ft 168kts
04-Nov-17 15:11 34.238888 -118.054573 300 8011ft 172kts
04-Nov-17 15:12 34.267007 -118.101662 299 8015ft 173kts
04-Nov-17 15:13 34.295237 -118.149002 299 8010ft 173kts
04-Nov-17 15:14 34.323482 -118.196420 300 8006ft 174kts
04-Nov-17 15:15 34.351718 -118.243901 300 8003ft 175kts
04-Nov-17 15:16 34.381826 -118.294625 301 7386ft 197kts
04-Nov-17 15:17 34.414706 -118.349959 301 6358ft 200kts
04-Nov-17 15:18 34.444813 -118.400632 301 5991ft 166kts
04-Nov-17 15:19 34.474553 -118.440245 349 5623ft 181kts
04-Nov-17 15:20 34.514441 -118.401415 51 5017ft 191kts
04-Nov-17 15:21 34.534796 -118.343585 73 4638ft 182kts
04-Nov-17 15:22 34.525752 -118.300469 160 3496ft 125kts
04-Nov-17 15:23 34.504061 -118.312253 235 2610ft 71kts
04-Nov-17 15:24 34.500399 -118.319030 44 2610ft 9kts
04-Nov-17 15:25 34.501983 -118.317360 157 2611ft 2kts

Navigation Log

Ident Type
Flight plan parsing failed, navigation log unavailable